KCSQ/CSQ METAR and TAF weather

Enter ICAO airport designator
Station Type Date Time Source
KCSQ METAR 2019/06/26 22:35 UTC NOAA

KCSQ 262235Z AUTO 18009KT 10SM CLR 28/20 A3003 RMK AO2


Station Type Date Time Source
KCSQ Decoded METAR 2019/06/26 22:35 UTC NOAA

Creston, IA, United States (KCSQ) 41-01N 094-22W
Jun 26, 2019 - 06:35 PM EDT / 2019.06.26 2235 UTC
Wind: from the S (180 degrees) at 10 MPH (9 KT):0
Visibility: 10 mile(s):0
Sky conditions: clear
Temperature: 82 F (28 C)
Dew Point: 68 F (20 C)
Relative Humidity: 61%
Pressure (altimeter): 30.03 in. Hg (1016 hPa)
ob: KCSQ 262235Z AUTO 18009KT 10SM CLR 28/20 A3003 RMK AO2
cycle: 22

Station Type Date Time Source
KCSQ TAF UTC NOAA

Error!

Example: see airport list